Eagle Turin — 9VMG6 — position and weather

sailwx.info

Track history (hours):
 
Tides and Currents Weather Stations Pressure Air Temp Water Temp Dewpoint Dewpoint Depression Visibility Wind Speed Wind Dir Waves Ship Positions

Eagle Turin

Last reported at 2018-Feb-11 13:20 UTC. Time now 2018-Feb-22 22:45 UTC.
Position N 40°51' E 029°17'.
Warning: this ship's position is 11 days out of date.

Length 246 m; draft 5 m.

Type: Ship (hazmat cat A). MMSI: 565770000.

Date/timePositionNaut miles runAvg speedWind from/ knotsBaromVisibWave heightAir tempDewpointWater temp
2018-Feb-11 13:20N 40°51' E 029°17'0 0.0
2018-Feb-11 09:38N 40°51' E 029°17'0 0.0
2018-Feb-10 20:44N 40°51' E 029°17'0 0.0
2018-Feb-10 20:21N 40°51' E 029°17'0 0.0
2018-Feb-10 20:00N 40°51' E 029°17'0 0.6
2018-Feb-10 19:30N 40°51' E 029°17'1 2.0
2018-Feb-10 19:00N 40°51' E 029°16'1 2.5
2018-Feb-10 18:30N 40°51' E 029°14'1 2.7
2018-Feb-10 18:00N 40°50' E 029°13'1 1.7
2018-Feb-10 17:25N 40°50' E 029°12'0 0.0
2018-Feb-10 16:55N 40°50' E 029°12'0 0.1
2018-Feb-10 16:25N 40°50' E 029°12'0 0.0
2018-Feb-10 15:55N 40°50' E 029°12'0 0.0
2018-Feb-10 15:25N 40°50' E 029°12'0 0.0
2018-Feb-10 14:49N 40°50' E 029°12'0 0.0
2018-Feb-10 14:25N 40°50' E 029°12'0 0.0
2018-Feb-10 13:55N 40°50' E 029°12'0 0.0
2018-Feb-10 13:25N 40°50' E 029°12'0 0.0
2018-Feb-10 12:49N 40°50' E 029°12'0 0.0
2018-Feb-10 12:25N 40°50' E 029°12'0 0.0
2018-Feb-10 11:49N 40°50' E 029°12'0 0.1
2018-Feb-10 11:25N 40°50' E 029°12'0 0.0
2018-Feb-10 10:55N 40°50' E 029°12'0 0.0
2018-Feb-10 10:25N 40°50' E 029°12'0 0.0
2018-Feb-10 09:55N 40°50' E 029°12'  
2018-Feb-07 09:01N 37°48' E 024°27'4 8.4
2018-Feb-07 08:34N 37°46' E 024°23'1 8.5
2018-Feb-07 08:27N 37°45' E 024°22'4 8.4
2018-Feb-07 08:00N 37°43' E 024°19'10 8.1
2018-Feb-07 06:50N 37°36' E 024°10'4 7.7
2018-Feb-07 06:19N 37°33' E 024°07'3 8.9
2018-Feb-07 06:00N 37°31' E 024°06'10 7.3
2018-Feb-07 04:37N 37°22' E 023°60'15 6.6
2018-Feb-07 02:19N 37°09' E 023°50'3 8.5
2018-Feb-07 02:00N 37°06' E 023°49'  
2018-Feb-03 17:02N 39°47' E 018°53'0 8.5
2018-Feb-03 16:59N 39°48' E 018°53'  
Track history (hours):
 
Tides and Currents Weather Stations Pressure Air Temp Water Temp Dewpoint Dewpoint Depression Visibility Wind Speed Wind Dir Waves Ship Positions

Eagle Turin

Last reported at 2018-Feb-11 13:20 UTC. Time now 2018-Feb-22 22:45 UTC.
Position N 40°51' E 029°17'.
Warning: this ship's position is 11 days out of date.

Length 246 m; draft 5 m.

Type: Ship (hazmat cat A). MMSI: 565770000.

Date/timePositionNaut miles runAvg speedWind from/ knotsBaromVisibWave heightAir tempDewpointWater temp
2018-Feb-11 13:20N 40°51' E 029°17'0 0.0
2018-Feb-11 09:38N 40°51' E 029°17'0 0.0
2018-Feb-10 20:44N 40°51' E 029°17'0 0.0
2018-Feb-10 20:21N 40°51' E 029°17'0 0.0
2018-Feb-10 20:00N 40°51' E 029°17'0 0.6
2018-Feb-10 19:30N 40°51' E 029°17'1 2.0
2018-Feb-10 19:00N 40°51' E 029°16'1 2.5
2018-Feb-10 18:30N 40°51' E 029°14'1 2.7
2018-Feb-10 18:00N 40°50' E 029°13'1 1.7
2018-Feb-10 17:25N 40°50' E 029°12'0 0.0
2018-Feb-10 16:55N 40°50' E 029°12'0 0.1
2018-Feb-10 16:25N 40°50' E 029°12'0 0.0
2018-Feb-10 15:55N 40°50' E 029°12'0 0.0
2018-Feb-10 15:25N 40°50' E 029°12'0 0.0
2018-Feb-10 14:49N 40°50' E 029°12'0 0.0
2018-Feb-10 14:25N 40°50' E 029°12'0 0.0
2018-Feb-10 13:55N 40°50' E 029°12'0 0.0
2018-Feb-10 13:25N 40°50' E 029°12'0 0.0
2018-Feb-10 12:49N 40°50' E 029°12'0 0.0
2018-Feb-10 12:25N 40°50' E 029°12'0 0.0
2018-Feb-10 11:49N 40°50' E 029°12'0 0.1
2018-Feb-10 11:25N 40°50' E 029°12'0 0.0
2018-Feb-10 10:55N 40°50' E 029°12'0 0.0
2018-Feb-10 10:25N 40°50' E 029°12'0 0.0
2018-Feb-10 09:55N 40°50' E 029°12'  
2018-Feb-07 09:01N 37°48' E 024°27'4 8.4
2018-Feb-07 08:34N 37°46' E 024°23'1 8.5
2018-Feb-07 08:27N 37°45' E 024°22'4 8.4
2018-Feb-07 08:00N 37°43' E 024°19'10 8.1
2018-Feb-07 06:50N 37°36' E 024°10'4 7.7
2018-Feb-07 06:19N 37°33' E 024°07'3 8.9
2018-Feb-07 06:00N 37°31' E 024°06'10 7.3
2018-Feb-07 04:37N 37°22' E 023°60'15 6.6
2018-Feb-07 02:19N 37°09' E 023°50'3 8.5
2018-Feb-07 02:00N 37°06' E 023°49'  
2018-Feb-03 17:02N 39°47' E 018°53'0 8.5
2018-Feb-03 16:59N 39°48' E 018°53'  

Dump ship's entire track history